sensor_id;sensor_type;location;lat;lon;timestamp;P1;durP1;ratioP1;P2;durP2;ratioP2
69979;SDS011;57318;56.232;43.944;2023-04-03T00:00:49;17.13;;;9.37;;
69979;SDS011;57318;56.232;43.944;2023-04-03T00:03:15;17.90;;;9.75;;
69979;SDS011;57318;56.232;43.944;2023-04-03T00:08:07;19.25;;;9.80;;
69979;SDS011;57318;56.232;43.944;2023-04-03T00:10:35;16.70;;;9.68;;
69979;SDS011;57318;56.232;43.944;2023-04-03T00:13:02;18.50;;;10.27;;
69979;SDS011;57318;56.232;43.944;2023-04-03T00:17:53;16.27;;;8.75;;
69979;SDS011;57318;56.232;43.944;2023-04-03T00:20:19;18.23;;;8.83;;
69979;SDS011;57318;56.232;43.944;2023-04-03T00:22:45;16.47;;;9.60;;
69979;SDS011;57318;56.232;43.944;2023-04-03T00:25:11;15.53;;;8.53;;
69979;SDS011;57318;56.232;43.944;2023-04-03T00:27:37;15.98;;;8.25;;
69979;SDS011;57318;56.232;43.944;2023-04-03T00:32:30;21.83;;;10.20;;
69979;SDS011;57318;56.232;43.944;2023-04-03T00:34:56;18.10;;;9.77;;
69979;SDS011;57318;56.232;43.944;2023-04-03T00:37:21;16.80;;;8.87;;
69979;SDS011;57318;56.232;43.944;2023-04-03T00:39:47;16.57;;;8.80;;
69979;SDS011;57318;56.232;43.944;2023-04-03T00:42:12;19.87;;;9.87;;
69979;SDS011;57318;56.232;43.944;2023-04-03T00:47:05;15.20;;;9.30;;
69979;SDS011;57318;56.232;43.944;2023-04-03T00:49:33;18.70;;;9.70;;
69979;SDS011;57318;56.232;43.944;2023-04-03T00:52:00;18.70;;;10.43;;
69979;SDS011;57318;56.232;43.944;2023-04-03T00:54:27;24.83;;;11.40;;
69979;SDS011;57318;56.232;43.944;2023-04-03T00:56:53;18.97;;;10.90;;
69979;SDS011;57318;56.232;43.944;2023-04-03T00:59:24;21.10;;;11.75;;
69979;SDS011;57318;56.232;43.944;2023-04-03T01:01:57;20.15;;;10.85;;
69979;SDS011;57318;56.232;43.944;2023-04-03T01:06:58;22.92;;;11.40;;
69979;SDS011;57318;56.232;43.944;2023-04-03T01:09:27;22.83;;;10.85;;
69979;SDS011;57318;56.232;43.944;2023-04-03T01:11:54;20.25;;;11.07;;
69979;SDS011;57318;56.232;43.944;2023-04-03T01:14:19;23.53;;;10.40;;
69979;SDS011;57318;56.232;43.944;2023-04-03T01:16:54;19.40;;;10.60;;
69979;SDS011;57318;56.232;43.944;2023-04-03T01:19:20;20.50;;;10.57;;
69979;SDS011;57318;56.232;43.944;2023-04-03T01:24:33;22.98;;;10.50;;
69979;SDS011;57318;56.232;43.944;2023-04-03T01:27:02;20.20;;;10.10;;
69979;SDS011;57318;56.232;43.944;2023-04-03T01:29:31;20.08;;;10.07;;
69979;SDS011;57318;56.232;43.944;2023-04-03T01:31:58;20.93;;;10.93;;
69979;SDS011;57318;56.232;43.944;2023-04-03T01:34:25;19.95;;;10.02;;
69979;SDS011;57318;56.232;43.944;2023-04-03T01:36:52;16.65;;;8.75;;
69979;SDS011;57318;56.232;43.944;2023-04-03T01:39:18;16.53;;;9.00;;
69979;SDS011;57318;56.232;43.944;2023-04-03T01:41:44;17.60;;;8.88;;
69979;SDS011;57318;56.232;43.944;2023-04-03T01:44:10;18.88;;;10.00;;
69979;SDS011;57318;56.232;43.944;2023-04-03T01:46:35;17.67;;;8.80;;
69979;SDS011;57318;56.232;43.944;2023-04-03T01:49:03;15.95;;;9.07;;
69979;SDS011;57318;56.232;43.944;2023-04-03T01:51:29;17.25;;;8.93;;
69979;SDS011;57318;56.232;43.944;2023-04-03T01:53:55;16.08;;;8.98;;
69979;SDS011;57318;56.232;43.944;2023-04-03T01:56:21;18.73;;;9.73;;
69979;SDS011;57318;56.232;43.944;2023-04-03T01:58:46;20.00;;;9.53;;
69979;SDS011;57318;56.232;43.944;2023-04-03T02:01:12;16.40;;;9.47;;
69979;SDS011;57318;56.232;43.944;2023-04-03T02:03:37;17.20;;;9.33;;
69979;SDS011;57318;56.232;43.944;2023-04-03T02:06:03;21.00;;;9.67;;
69979;SDS011;57318;56.232;43.944;2023-04-03T02:08:29;15.65;;;8.18;;
69979;SDS011;57318;56.232;43.944;2023-04-03T02:10:55;17.07;;;9.47;;
69979;SDS011;57318;56.232;43.944;2023-04-03T02:13:20;18.00;;;9.30;;
69979;SDS011;57318;56.232;43.944;2023-04-03T02:15:46;18.87;;;9.53;;
69979;SDS011;57318;56.232;43.944;2023-04-03T02:22:18;15.30;;;8.10;;
69979;SDS011;57318;56.232;43.944;2023-04-03T02:24:44;15.95;;;8.68;;
69979;SDS011;57318;56.232;43.944;2023-04-03T02:27:09;21.87;;;10.67;;
69979;SDS011;57318;56.232;43.944;2023-04-03T02:29:35;18.10;;;9.43;;
69979;SDS011;57318;56.232;43.944;2023-04-03T02:32:01;20.73;;;10.00;;
69979;SDS011;57318;56.232;43.944;2023-04-03T02:34:26;20.50;;;10.70;;
69979;SDS011;57318;56.232;43.944;2023-04-03T02:36:52;19.27;;;9.43;;
69979;SDS011;57318;56.232;43.944;2023-04-03T02:39:18;20.53;;;9.70;;
69979;SDS011;57318;56.232;43.944;2023-04-03T02:41:43;19.73;;;10.37;;
69979;SDS011;57318;56.232;43.944;2023-04-03T02:44:09;21.80;;;10.27;;
69979;SDS011;57318;56.232;43.944;2023-04-03T02:46:36;20.80;;;10.45;;
69979;SDS011;57318;56.232;43.944;2023-04-03T02:49:02;21.80;;;11.63;;
69979;SDS011;57318;56.232;43.944;2023-04-03T02:51:28;19.95;;;9.82;;
69979;SDS011;57318;56.232;43.944;2023-04-03T02:53:53;17.40;;;9.87;;
69979;SDS011;57318;56.232;43.944;2023-04-03T02:56:19;21.70;;;10.27;;
69979;SDS011;57318;56.232;43.944;2023-04-03T02:58:45;20.65;;;10.82;;
69979;SDS011;57318;56.232;43.944;2023-04-03T03:01:11;17.43;;;9.83;;
69979;SDS011;57318;56.232;43.944;2023-04-03T03:03:38;21.73;;;9.75;;
69979;SDS011;57318;56.232;43.944;2023-04-03T03:06:04;19.67;;;11.20;;
69979;SDS011;57318;56.232;43.944;2023-04-03T03:08:32;20.00;;;10.95;;
69979;SDS011;57318;56.232;43.944;2023-04-03T03:10:58;18.77;;;10.05;;
69979;SDS011;57318;56.232;43.944;2023-04-03T03:13:23;17.47;;;9.70;;
69979;SDS011;57318;56.232;43.944;2023-04-03T03:15:50;18.17;;;10.00;;
69979;SDS011;57318;56.232;43.944;2023-04-03T03:18:16;20.37;;;10.00;;
69979;SDS011;57318;56.232;43.944;2023-04-03T03:20:41;20.58;;;9.40;;
69979;SDS011;57318;56.232;43.944;2023-04-03T03:23:07;20.47;;;9.23;;
69979;SDS011;57318;56.232;43.944;2023-04-03T03:25:33;18.97;;;9.77;;
69979;SDS011;57318;56.232;43.944;2023-04-03T03:28:02;17.27;;;9.18;;
69979;SDS011;57318;56.232;43.944;2023-04-03T03:30:28;17.90;;;9.80;;
69979;SDS011;57318;56.232;43.944;2023-04-03T03:32:53;16.17;;;9.20;;
69979;SDS011;57318;56.232;43.944;2023-04-03T03:35:19;15.53;;;8.90;;
69979;SDS011;57318;56.232;43.944;2023-04-03T03:37:45;15.67;;;9.00;;
69979;SDS011;57318;56.232;43.944;2023-04-03T03:40:10;15.30;;;9.23;;
69979;SDS011;57318;56.232;43.944;2023-04-03T03:42:38;17.73;;;9.05;;
69979;SDS011;57318;56.232;43.944;2023-04-03T03:45:04;15.18;;;8.95;;
69979;SDS011;57318;56.232;43.944;2023-04-03T03:47:30;13.25;;;8.25;;
69979;SDS011;57318;56.232;43.944;2023-04-03T03:49:56;16.57;;;9.17;;
69979;SDS011;57318;56.232;43.944;2023-04-03T03:52:21;19.10;;;9.13;;
69979;SDS011;57318;56.232;43.944;2023-04-03T03:54:47;16.03;;;9.03;;
69979;SDS011;57318;56.232;43.944;2023-04-03T03:57:13;15.47;;;9.30;;
69979;SDS011;57318;56.232;43.944;2023-04-03T04:03:44;15.25;;;8.88;;
69979;SDS011;57318;56.232;43.944;2023-04-03T04:06:10;17.42;;;9.52;;
69979;SDS011;57318;56.232;43.944;2023-04-03T04:08:35;18.87;;;11.23;;
69979;SDS011;57318;56.232;43.944;2023-04-03T04:11:01;14.00;;;9.10;;
69979;SDS011;57318;56.232;43.944;2023-04-03T04:13:27;22.67;;;9.80;;
69979;SDS011;57318;56.232;43.944;2023-04-03T04:15:52;16.07;;;9.30;;
69979;SDS011;57318;56.232;43.944;2023-04-03T04:18:18;16.97;;;9.27;;
69979;SDS011;57318;56.232;43.944;2023-04-03T04:20:45;15.02;;;8.93;;
69979;SDS011;57318;56.232;43.944;2023-04-03T04:23:11;13.60;;;9.10;;
69979;SDS011;57318;56.232;43.944;2023-04-03T04:25:37;12.67;;;8.90;;
69979;SDS011;57318;56.232;43.944;2023-04-03T04:28:02;14.50;;;8.80;;
69979;SDS011;57318;56.232;43.944;2023-04-03T04:30:28;16.10;;;9.20;;
69979;SDS011;57318;56.232;43.944;2023-04-03T04:32:54;14.53;;;9.30;;
69979;SDS011;57318;56.232;43.944;2023-04-03T04:35:19;22.07;;;10.23;;
69979;SDS011;57318;56.232;43.944;2023-04-03T04:37:45;17.43;;;10.87;;
69979;SDS011;57318;56.232;43.944;2023-04-03T04:40:11;20.13;;;10.73;;
69979;SDS011;57318;56.232;43.944;2023-04-03T04:42:37;19.80;;;11.05;;
69979;SDS011;57318;56.232;43.944;2023-04-03T04:45:03;19.23;;;11.37;;
69979;SDS011;57318;56.232;43.944;2023-04-03T04:47:29;21.83;;;13.10;;
69979;SDS011;57318;56.232;43.944;2023-04-03T04:49:54;23.80;;;13.17;;
69979;SDS011;57318;56.232;43.944;2023-04-03T04:52:20;20.13;;;12.60;;
69979;SDS011;57318;56.232;43.944;2023-04-03T04:54:46;17.90;;;10.60;;
69979;SDS011;57318;56.232;43.944;2023-04-03T04:57:11;21.77;;;11.10;;
69979;SDS011;57318;56.232;43.944;2023-04-03T04:59:37;25.87;;;11.13;;
69979;SDS011;57318;56.232;43.944;2023-04-03T05:02:03;19.30;;;10.93;;
69979;SDS011;57318;56.232;43.944;2023-04-03T05:04:28;18.93;;;11.20;;
69979;SDS011;57318;56.232;43.944;2023-04-03T05:06:54;14.87;;;9.20;;
69979;SDS011;57318;56.232;43.944;2023-04-03T05:09:20;19.90;;;10.10;;
69979;SDS011;57318;56.232;43.944;2023-04-03T05:11:46;20.15;;;9.80;;
69979;SDS011;57318;56.232;43.944;2023-04-03T05:14:11;18.95;;;10.25;;
69979;SDS011;57318;56.232;43.944;2023-04-03T05:16:37;20.83;;;9.87;;
69979;SDS011;57318;56.232;43.944;2023-04-03T05:19:03;20.53;;;10.23;;
69979;SDS011;57318;56.232;43.944;2023-04-03T05:21:29;15.90;;;9.10;;
69979;SDS011;57318;56.232;43.944;2023-04-03T05:23:58;16.27;;;9.02;;
69979;SDS011;57318;56.232;43.944;2023-04-03T05:26:24;16.40;;;9.80;;
69979;SDS011;57318;56.232;43.944;2023-04-03T05:31:16;15.85;;;8.68;;
69979;SDS011;57318;56.232;43.944;2023-04-03T05:33:42;13.57;;;7.93;;
69979;SDS011;57318;56.232;43.944;2023-04-03T05:36:08;12.07;;;7.57;;
69979;SDS011;57318;56.232;43.944;2023-04-03T05:38:34;24.30;;;9.40;;
69979;SDS011;57318;56.232;43.944;2023-04-03T05:41:00;22.30;;;9.17;;
69979;SDS011;57318;56.232;43.944;2023-04-03T05:43:25;23.03;;;8.90;;
69979;SDS011;57318;56.232;43.944;2023-04-03T05:45:51;18.73;;;9.50;;
69979;SDS011;57318;56.232;43.944;2023-04-03T05:48:17;14.67;;;8.43;;
69979;SDS011;57318;56.232;43.944;2023-04-03T05:50:43;16.88;;;9.35;;
69979;SDS011;57318;56.232;43.944;2023-04-03T05:53:12;20.90;;;10.00;;
69979;SDS011;57318;56.232;43.944;2023-04-03T05:55:44;18.40;;;9.35;;
69979;SDS011;57318;56.232;43.944;2023-04-03T05:58:10;20.23;;;8.87;;
69979;SDS011;57318;56.232;43.944;2023-04-03T06:00:35;21.07;;;10.20;;
69979;SDS011;57318;56.232;43.944;2023-04-03T06:03:01;18.70;;;10.07;;
69979;SDS011;57318;56.232;43.944;2023-04-03T06:05:27;17.57;;;8.70;;
69979;SDS011;57318;56.232;43.944;2023-04-03T06:07:52;13.83;;;8.17;;
69979;SDS011;57318;56.232;43.944;2023-04-03T06:10:18;20.10;;;8.83;;
69979;SDS011;57318;56.232;43.944;2023-04-03T06:12:45;22.27;;;8.80;;
69979;SDS011;57318;56.232;43.944;2023-04-03T06:15:11;15.93;;;8.23;;
69979;SDS011;57318;56.232;43.944;2023-04-03T06:17:36;16.47;;;8.03;;
69979;SDS011;57318;56.232;43.944;2023-04-03T06:20:03;15.47;;;7.53;;
69979;SDS011;57318;56.232;43.944;2023-04-03T06:22:29;18.05;;;7.63;;
69979;SDS011;57318;56.232;43.944;2023-04-03T06:24:56;18.25;;;7.18;;
69979;SDS011;57318;56.232;43.944;2023-04-03T06:27:22;20.33;;;8.25;;
69979;SDS011;57318;56.232;43.944;2023-04-03T06:29:48;23.63;;;7.87;;
69979;SDS011;57318;56.232;43.944;2023-04-03T06:32:15;12.18;;;7.43;;
69979;SDS011;57318;56.232;43.944;2023-04-03T06:34:41;14.68;;;7.43;;
69979;SDS011;57318;56.232;43.944;2023-04-03T06:37:28;16.67;;;7.20;;
69979;SDS011;57318;56.232;43.944;2023-04-03T06:39:56;16.88;;;7.65;;
69979;SDS011;57318;56.232;43.944;2023-04-03T06:42:22;13.33;;;7.60;;
69979;SDS011;57318;56.232;43.944;2023-04-03T06:44:48;16.27;;;7.55;;
69979;SDS011;57318;56.232;43.944;2023-04-03T06:47:14;14.48;;;7.00;;
69979;SDS011;57318;56.232;43.944;2023-04-03T06:49:41;9.55;;;6.82;;
69979;SDS011;57318;56.232;43.944;2023-04-03T06:56:13;13.63;;;7.45;;
69979;SDS011;57318;56.232;43.944;2023-04-03T06:58:39;15.35;;;7.40;;
69979;SDS011;57318;56.232;43.944;2023-04-03T07:01:05;11.23;;;7.15;;
69979;SDS011;57318;56.232;43.944;2023-04-03T07:03:31;14.55;;;7.18;;
69979;SDS011;57318;56.232;43.944;2023-04-03T07:05:56;13.10;;;7.07;;
69979;SDS011;57318;56.232;43.944;2023-04-03T07:08:22;17.40;;;8.07;;
69979;SDS011;57318;56.232;43.944;2023-04-03T07:10:48;10.15;;;7.10;;
69979;SDS011;57318;56.232;43.944;2023-04-03T07:13:15;12.57;;;7.47;;
69979;SDS011;57318;56.232;43.944;2023-04-03T07:15:41;16.60;;;7.70;;
69979;SDS011;57318;56.232;43.944;2023-04-03T07:18:06;22.63;;;8.03;;
69979;SDS011;57318;56.232;43.944;2023-04-03T07:20:32;14.93;;;7.67;;
69979;SDS011;57318;56.232;43.944;2023-04-03T07:22:58;16.27;;;7.70;;
69979;SDS011;57318;56.232;43.944;2023-04-03T07:25:23;13.57;;;7.80;;
69979;SDS011;57318;56.232;43.944;2023-04-03T07:27:49;19.57;;;7.50;;
69979;SDS011;57318;56.232;43.944;2023-04-03T07:30:14;15.17;;;7.77;;
69979;SDS011;57318;56.232;43.944;2023-04-03T07:32:40;17.48;;;6.97;;
69979;SDS011;57318;56.232;43.944;2023-04-03T07:35:06;11.85;;;7.43;;
69979;SDS011;57318;56.232;43.944;2023-04-03T07:37:32;14.20;;;6.82;;
69979;SDS011;57318;56.232;43.944;2023-04-03T07:39:57;15.52;;;7.15;;
69979;SDS011;57318;56.232;43.944;2023-04-03T07:42:24;18.65;;;7.05;;
69979;SDS011;57318;56.232;43.944;2023-04-03T07:44:52;10.32;;;6.60;;
69979;SDS011;57318;56.232;43.944;2023-04-03T07:49:46;14.27;;;9.45;;
69979;SDS011;57318;56.232;43.944;2023-04-03T07:52:12;12.10;;;6.97;;
69979;SDS011;57318;56.232;43.944;2023-04-03T07:54:39;13.23;;;6.57;;
69979;SDS011;57318;56.232;43.944;2023-04-03T07:57:05;13.20;;;9.10;;
69979;SDS011;57318;56.232;43.944;2023-04-03T08:01:57;12.85;;;6.80;;
69979;SDS011;57318;56.232;43.944;2023-04-03T08:04:23;13.60;;;6.80;;
69979;SDS011;57318;56.232;43.944;2023-04-03T08:06:48;14.23;;;6.93;;
69979;SDS011;57318;56.232;43.944;2023-04-03T08:09:15;18.50;;;6.43;;
69979;SDS011;57318;56.232;43.944;2023-04-03T08:11:41;11.05;;;6.80;;
69979;SDS011;57318;56.232;43.944;2023-04-03T08:14:06;11.95;;;6.00;;
69979;SDS011;57318;56.232;43.944;2023-04-03T08:16:32;9.80;;;5.90;;
69979;SDS011;57318;56.232;43.944;2023-04-03T08:18:58;11.13;;;5.93;;
69979;SDS011;57318;56.232;43.944;2023-04-03T08:23:50;15.25;;;7.13;;
69979;SDS011;57318;56.232;43.944;2023-04-03T08:26:17;13.63;;;6.50;;
69979;SDS011;57318;56.232;43.944;2023-04-03T08:28:45;19.02;;;6.28;;
69979;SDS011;57318;56.232;43.944;2023-04-03T08:31:12;23.05;;;6.35;;
69979;SDS011;57318;56.232;43.944;2023-04-03T08:33:43;11.63;;;5.53;;
69979;SDS011;57318;56.232;43.944;2023-04-03T08:36:23;15.57;;;5.78;;
69979;SDS011;57318;56.232;43.944;2023-04-03T08:38:51;17.23;;;6.40;;
69979;SDS011;57318;56.232;43.944;2023-04-03T08:41:34;11.60;;;5.32;;
69979;SDS011;57318;56.232;43.944;2023-04-03T08:51:57;11.13;;;6.10;;
69979;SDS011;57318;56.232;43.944;2023-04-03T08:54:37;32.55;;;6.38;;
69979;SDS011;57318;56.232;43.944;2023-04-03T08:57:14;10.25;;;5.65;;
69979;SDS011;57318;56.232;43.944;2023-04-03T08:59:41;9.77;;;5.35;;
69979;SDS011;57318;56.232;43.944;2023-04-03T09:02:21;18.63;;;6.88;;
69979;SDS011;57318;56.232;43.944;2023-04-03T09:04:52;33.60;;;6.07;;
69979;SDS011;57318;56.232;43.944;2023-04-03T09:10:04;10.20;;;5.20;;
69979;SDS011;57318;56.232;43.944;2023-04-03T09:12:34;17.17;;;6.00;;
69979;SDS011;57318;56.232;43.944;2023-04-03T09:15:23;15.23;;;5.80;;
69979;SDS011;57318;56.232;43.944;2023-04-03T09:18:02;18.63;;;5.90;;
69979;SDS011;57318;56.232;43.944;2023-04-03T09:23:13;12.63;;;5.60;;
69979;SDS011;57318;56.232;43.944;2023-04-03T09:26:07;15.90;;;5.63;;
69979;SDS011;57318;56.232;43.944;2023-04-03T09:28:39;14.82;;;5.40;;
69979;SDS011;57318;56.232;43.944;2023-04-03T09:31:18;8.55;;;4.97;;
69979;SDS011;57318;56.232;43.944;2023-04-03T09:33:45;12.98;;;5.07;;
69979;SDS011;57318;56.232;43.944;2023-04-03T09:36:13;16.38;;;6.38;;
69979;SDS011;57318;56.232;43.944;2023-04-03T09:38:38;18.42;;;5.90;;
69979;SDS011;57318;56.232;43.944;2023-04-03T09:41:06;31.30;;;6.03;;
69979;SDS011;57318;56.232;43.944;2023-04-03T09:43:33;12.93;;;5.45;;
69979;SDS011;57318;56.232;43.944;2023-04-03T09:49:05;13.30;;;4.47;;
69979;SDS011;57318;56.232;43.944;2023-04-03T09:51:31;20.90;;;5.45;;
69979;SDS011;57318;56.232;43.944;2023-04-03T09:53:57;12.25;;;4.70;;
69979;SDS011;57318;56.232;43.944;2023-04-03T09:56:25;18.35;;;5.78;;
69979;SDS011;57318;56.232;43.944;2023-04-03T10:01:28;25.90;;;6.85;;
69979;SDS011;57318;56.232;43.944;2023-04-03T10:04:11;15.20;;;5.10;;
69979;SDS011;57318;56.232;43.944;2023-04-03T10:06:45;9.00;;;4.63;;
69979;SDS011;57318;56.232;43.944;2023-04-03T10:14:40;13.77;;;5.78;;
69979;SDS011;57318;56.232;43.944;2023-04-03T10:17:37;19.73;;;5.85;;
69979;SDS011;57318;56.232;43.944;2023-04-03T10:33:39;13.48;;;4.43;;
69979;SDS011;57318;56.232;43.944;2023-04-03T10:50:15;11.73;;;5.15;;
69979;SDS011;57318;56.232;43.944;2023-04-03T10:58:55;11.85;;;4.82;;
69979;SDS011;57318;56.232;43.944;2023-04-03T11:01:30;13.13;;;4.65;;
69979;SDS011;57318;56.232;43.944;2023-04-03T11:04:00;11.27;;;4.72;;
69979;SDS011;57318;56.232;43.944;2023-04-03T11:06:33;14.27;;;4.35;;
69979;SDS011;57318;56.232;43.944;2023-04-03T11:09:05;32.30;;;6.32;;
69979;SDS011;57318;56.232;43.944;2023-04-03T11:11:41;17.92;;;5.20;;
69979;SDS011;57318;56.232;43.944;2023-04-03T11:17:38;16.63;;;4.50;;
69979;SDS011;57318;56.232;43.944;2023-04-03T11:22:43;21.23;;;5.10;;
69979;SDS011;57318;56.232;43.944;2023-04-03T11:25:23;10.10;;;4.10;;
69979;SDS011;57318;56.232;43.944;2023-04-03T11:27:57;8.45;;;4.50;;
69979;SDS011;57318;56.232;43.944;2023-04-03T11:36:12;12.52;;;3.85;;
69979;SDS011;57318;56.232;43.944;2023-04-03T11:38:43;14.73;;;4.25;;
69979;SDS011;57318;56.232;43.944;2023-04-03T11:41:12;9.32;;;3.83;;
69979;SDS011;57318;56.232;43.944;2023-04-03T11:46:49;9.35;;;3.88;;
69979;SDS011;57318;56.232;43.944;2023-04-03T11:53:03;17.05;;;4.05;;
69979;SDS011;57318;56.232;43.944;2023-04-03T12:08:45;16.70;;;4.00;;
69979;SDS011;57318;56.232;43.944;2023-04-03T12:13:42;12.73;;;4.47;;
69979;SDS011;57318;56.232;43.944;2023-04-03T12:21:19;18.98;;;4.10;;
69979;SDS011;57318;56.232;43.944;2023-04-03T12:23:57;30.55;;;5.10;;
69979;SDS011;57318;56.232;43.944;2023-04-03T12:34:48;13.45;;;3.88;;
69979;SDS011;57318;56.232;43.944;2023-04-03T12:43:01;25.00;;;5.13;;
69979;SDS011;57318;56.232;43.944;2023-04-03T12:46:09;37.38;;;5.40;;
69979;SDS011;57318;56.232;43.944;2023-04-03T12:51:09;27.00;;;5.10;;
69979;SDS011;57318;56.232;43.944;2023-04-03T12:53:44;45.85;;;6.95;;
69979;SDS011;57318;56.232;43.944;2023-04-03T12:58:49;10.70;;;3.85;;
69979;SDS011;57318;56.232;43.944;2023-04-03T13:01:16;14.60;;;3.90;;
69979;SDS011;57318;56.232;43.944;2023-04-03T13:03:47;13.50;;;4.03;;
69979;SDS011;57318;56.232;43.944;2023-04-03T13:06:15;18.10;;;4.22;;
69979;SDS011;57318;56.232;43.944;2023-04-03T13:08:49;40.00;;;6.20;;
69979;SDS011;57318;56.232;43.944;2023-04-03T13:11:16;61.13;;;6.78;;
69979;SDS011;57318;56.232;43.944;2023-04-03T13:13:58;25.10;;;5.10;;
69979;SDS011;57318;56.232;43.944;2023-04-03T13:19:23;15.80;;;3.83;;
69979;SDS011;57318;56.232;43.944;2023-04-03T13:21:52;32.05;;;4.80;;
69979;SDS011;57318;56.232;43.944;2023-04-03T13:24:24;17.52;;;4.43;;
69979;SDS011;57318;56.232;43.944;2023-04-03T13:26:51;20.23;;;4.30;;
69979;SDS011;57318;56.232;43.944;2023-04-03T13:31:54;13.00;;;3.55;;
69979;SDS011;57318;56.232;43.944;2023-04-03T13:34:22;19.52;;;4.13;;
69979;SDS011;57318;56.232;43.944;2023-04-03T13:41:46;53.77;;;5.40;;
69979;SDS011;57318;56.232;43.944;2023-04-03T13:46:48;34.80;;;6.95;;
69979;SDS011;57318;56.232;43.944;2023-04-03T13:49:58;41.15;;;5.50;;
69979;SDS011;57318;56.232;43.944;2023-04-03T13:52:34;24.77;;;4.90;;
69979;SDS011;57318;56.232;43.944;2023-04-03T13:57:51;17.35;;;4.50;;
69979;SDS011;57318;56.232;43.944;2023-04-03T14:03:21;14.13;;;4.20;;
69979;SDS011;57318;56.232;43.944;2023-04-03T14:05:50;35.15;;;5.00;;
69979;SDS011;57318;56.232;43.944;2023-04-03T14:08:16;78.65;;;6.85;;
69979;SDS011;57318;56.232;43.944;2023-04-03T14:10:43;54.67;;;5.80;;
69979;SDS011;57318;56.232;43.944;2023-04-03T14:13:13;20.05;;;4.85;;
69979;SDS011;57318;56.232;43.944;2023-04-03T14:15:40;68.45;;;7.80;;
69979;SDS011;57318;56.232;43.944;2023-04-03T14:20:36;28.80;;;5.32;;
69979;SDS011;57318;56.232;43.944;2023-04-03T14:23:02;61.00;;;6.53;;
69979;SDS011;57318;56.232;43.944;2023-04-03T14:25:27;25.60;;;3.90;;
69979;SDS011;57318;56.232;43.944;2023-04-03T14:27:53;59.65;;;6.50;;
69979;SDS011;57318;56.232;43.944;2023-04-03T14:32:56;24.65;;;4.45;;
69979;SDS011;57318;56.232;43.944;2023-04-03T14:35:22;12.60;;;3.30;;
69979;SDS011;57318;56.232;43.944;2023-04-03T14:37:49;18.23;;;4.32;;
69979;SDS011;57318;56.232;43.944;2023-04-03T14:40:15;43.63;;;5.70;;
69979;SDS011;57318;56.232;43.944;2023-04-03T14:42:44;29.40;;;4.30;;
69979;SDS011;57318;56.232;43.944;2023-04-03T14:45:12;24.02;;;3.97;;
69979;SDS011;57318;56.232;43.944;2023-04-03T14:47:52;43.85;;;5.80;;
69979;SDS011;57318;56.232;43.944;2023-04-03T14:50:22;27.85;;;4.28;;
69979;SDS011;57318;56.232;43.944;2023-04-03T14:52:51;31.23;;;4.03;;
69979;SDS011;57318;56.232;43.944;2023-04-03T14:55:19;52.80;;;5.93;;
69979;SDS011;57318;56.232;43.944;2023-04-03T14:57:46;34.58;;;5.68;;
69979;SDS011;57318;56.232;43.944;2023-04-03T15:00:13;33.90;;;4.93;;
69979;SDS011;57318;56.232;43.944;2023-04-03T15:02:43;54.72;;;6.35;;
69979;SDS011;57318;56.232;43.944;2023-04-03T15:05:10;26.67;;;4.30;;
69979;SDS011;57318;56.232;43.944;2023-04-03T15:07:38;20.58;;;3.83;;
69979;SDS011;57318;56.232;43.944;2023-04-03T15:10:17;23.42;;;4.63;;
69979;SDS011;57318;56.232;43.944;2023-04-03T15:12:45;31.27;;;4.57;;
69979;SDS011;57318;56.232;43.944;2023-04-03T15:15:12;43.03;;;6.32;;
69979;SDS011;57318;56.232;43.944;2023-04-03T15:17:39;72.75;;;7.10;;
69979;SDS011;57318;56.232;43.944;2023-04-03T15:20:10;38.45;;;5.82;;
69979;SDS011;57318;56.232;43.944;2023-04-03T15:22:41;21.77;;;4.15;;
69979;SDS011;57318;56.232;43.944;2023-04-03T15:25:07;46.27;;;6.20;;
69979;SDS011;57318;56.232;43.944;2023-04-03T15:29:59;33.08;;;5.05;;
69979;SDS011;57318;56.232;43.944;2023-04-03T15:32:25;30.60;;;5.57;;
69979;SDS011;57318;56.232;43.944;2023-04-03T15:34:50;44.10;;;7.10;;
69979;SDS011;57318;56.232;43.944;2023-04-03T15:37:16;28.07;;;5.00;;
69979;SDS011;57318;56.232;43.944;2023-04-03T15:39:42;44.87;;;6.97;;
69979;SDS011;57318;56.232;43.944;2023-04-03T15:42:07;35.77;;;5.47;;
69979;SDS011;57318;56.232;43.944;2023-04-03T15:44:33;30.63;;;4.97;;
69979;SDS011;57318;56.232;43.944;2023-04-03T15:47:00;46.97;;;6.13;;
69979;SDS011;57318;56.232;43.944;2023-04-03T15:49:27;50.15;;;6.05;;
69979;SDS011;57318;56.232;43.944;2023-04-03T15:51:52;38.83;;;5.45;;
69979;SDS011;57318;56.232;43.944;2023-04-03T15:54:18;27.27;;;5.57;;
69979;SDS011;57318;56.232;43.944;2023-04-03T15:56:44;39.10;;;5.57;;
69979;SDS011;57318;56.232;43.944;2023-04-03T15:59:10;34.73;;;5.47;;
69979;SDS011;57318;56.232;43.944;2023-04-03T16:01:36;17.80;;;5.07;;
69979;SDS011;57318;56.232;43.944;2023-04-03T16:04:04;34.97;;;6.68;;
69979;SDS011;57318;56.232;43.944;2023-04-03T16:06:31;25.45;;;5.88;;
69979;SDS011;57318;56.232;43.944;2023-04-03T16:08:58;16.15;;;4.97;;
69979;SDS011;57318;56.232;43.944;2023-04-03T16:11:24;19.70;;;4.80;;
69979;SDS011;57318;56.232;43.944;2023-04-03T16:13:51;21.95;;;5.07;;
69979;SDS011;57318;56.232;43.944;2023-04-03T16:16:16;21.10;;;4.90;;
69979;SDS011;57318;56.232;43.944;2023-04-03T16:18:42;12.20;;;4.17;;
69979;SDS011;57318;56.232;43.944;2023-04-03T16:21:08;23.67;;;4.60;;
69979;SDS011;57318;56.232;43.944;2023-04-03T16:23:34;14.32;;;5.22;;
69979;SDS011;57318;56.232;43.944;2023-04-03T16:26:01;21.47;;;4.70;;
69979;SDS011;57318;56.232;43.944;2023-04-03T16:28:27;33.92;;;5.10;;
69979;SDS011;57318;56.232;43.944;2023-04-03T16:30:56;31.03;;;6.10;;
69979;SDS011;57318;56.232;43.944;2023-04-03T16:33:22;17.08;;;5.50;;
69979;SDS011;57318;56.232;43.944;2023-04-03T16:38:15;29.42;;;5.18;;
69979;SDS011;57318;56.232;43.944;2023-04-03T16:40:41;22.30;;;5.47;;
69979;SDS011;57318;56.232;43.944;2023-04-03T16:43:07;37.23;;;6.87;;
69979;SDS011;57318;56.232;43.944;2023-04-03T16:45:33;26.07;;;6.30;;
69979;SDS011;57318;56.232;43.944;2023-04-03T16:47:58;25.27;;;6.30;;
69979;SDS011;57318;56.232;43.944;2023-04-03T16:50:24;18.77;;;5.83;;
69979;SDS011;57318;56.232;43.944;2023-04-03T16:52:50;19.47;;;5.40;;
69979;SDS011;57318;56.232;43.944;2023-04-03T16:55:15;21.87;;;6.07;;
69979;SDS011;57318;56.232;43.944;2023-04-03T16:57:41;21.77;;;5.53;;
69979;SDS011;57318;56.232;43.944;2023-04-03T17:00:07;26.07;;;5.97;;
69979;SDS011;57318;56.232;43.944;2023-04-03T17:02:33;16.13;;;5.68;;
69979;SDS011;57318;56.232;43.944;2023-04-03T17:04:59;22.50;;;5.70;;
69979;SDS011;57318;56.232;43.944;2023-04-03T17:07:25;17.67;;;5.57;;
69979;SDS011;57318;56.232;43.944;2023-04-03T17:09:51;17.25;;;5.07;;
69979;SDS011;57318;56.232;43.944;2023-04-03T17:12:19;23.65;;;5.53;;
69979;SDS011;57318;56.232;43.944;2023-04-03T17:14:45;21.90;;;5.00;;
69979;SDS011;57318;56.232;43.944;2023-04-03T17:17:14;25.73;;;5.95;;
69979;SDS011;57318;56.232;43.944;2023-04-03T17:19:41;26.08;;;5.00;;
69979;SDS011;57318;56.232;43.944;2023-04-03T17:22:08;27.92;;;5.13;;
69979;SDS011;57318;56.232;43.944;2023-04-03T17:24:34;16.85;;;5.07;;
69979;SDS011;57318;56.232;43.944;2023-04-03T17:27:01;18.73;;;4.38;;